Terminal Aerodrome Forecast
Issued by NWS

Home | Current Version | Previous Version | Text Only | Print | Product List | Glossary On
Versions: 1 2 3 4 5 6 7 8 9 10 11 12 13 14 15
000
FTAK31 PAJN 191100
TAFAPG
TAF
PAPG 191120Z 1912/2012 VRB05KT P6SM FEW050 SCT080 BKN150
     FM191300 10007KT P6SM SCT050 BKN080
     FM200300 12007G15KT P6SM VCSH BKN040 OVC060
     FM200900 18010G15KT P6SM -RA BKN040 OVC060
      AMD LTD TO CLD VIS AND WIND 1912/1915=

USA.gov is the U.S. government's official web portal to all federal, state and local government web resources and services.